createdAt,value
2023-04-22T00:01:15.206Z,100925.47
2023-04-22T00:03:42.317Z,100922.00
2023-04-22T00:06:09.060Z,100931.56
2023-04-22T00:08:35.584Z,100918.69
2023-04-22T00:11:02.453Z,100911.81
2023-04-22T00:13:29.070Z,100907.69
2023-04-22T00:15:55.632Z,100907.91
2023-04-22T00:18:22.147Z,100910.59
2023-04-22T00:20:48.573Z,100909.22
2023-04-22T00:23:15.060Z,100902.56
2023-04-22T00:25:42.531Z,100910.59
2023-04-22T00:28:09.092Z,100914.28
2023-04-22T00:30:36.666Z,100912.59
2023-04-22T00:33:03.424Z,100911.84
2023-04-22T00:35:30.454Z,100908.59
2023-04-22T00:37:57.212Z,100910.75
2023-04-22T00:40:23.705Z,100912.59
2023-04-22T00:42:50.775Z,100914.50
2023-04-22T00:45:19.081Z,100908.75
2023-04-22T00:47:46.704Z,100909.13
2023-04-22T00:50:13.447Z,100910.34
2023-04-22T00:52:39.875Z,100916.00
2023-04-22T00:55:06.987Z,100914.50
2023-04-22T00:57:35.921Z,100919.13
2023-04-22T01:00:05.538Z,100918.47
2023-04-22T01:02:32.825Z,100922.00
2023-04-22T01:05:01.096Z,100923.81
2023-04-22T01:07:27.712Z,100924.75
2023-04-22T01:09:54.488Z,100920.38
2023-04-22T01:12:20.905Z,100922.28
2023-04-22T01:14:47.512Z,100917.31
2023-04-22T01:17:16.207Z,100918.06
2023-04-22T01:19:43.700Z,100924.97
2023-04-22T01:22:13.455Z,100924.25
2023-04-22T01:24:39.931Z,100921.03
2023-04-22T01:27:06.577Z,100922.22
2023-04-22T01:29:33.245Z,100918.28
2023-04-22T01:32:00.361Z,100921.84
2023-04-22T01:34:26.922Z,100919.19
2023-04-22T01:36:53.327Z,100917.44
2023-04-22T01:39:19.789Z,100924.44
2023-04-22T01:41:46.958Z,100922.63
2023-04-22T01:44:14.685Z,100920.25
2023-04-22T01:46:41.712Z,100921.16
2023-04-22T01:49:08.108Z,100918.56
2023-04-22T01:51:34.531Z,100922.06
2023-04-22T01:54:03.906Z,100920.41
2023-04-22T01:56:30.317Z,100912.66
2023-04-22T01:58:56.729Z,100917.84
2023-04-22T02:01:23.203Z,100919.59
2023-04-22T02:03:49.861Z,100916.25
2023-04-22T02:06:16.305Z,100919.75
2023-04-22T02:08:42.675Z,100913.69
2023-04-22T02:11:09.196Z,100915.56
2023-04-22T02:13:37.019Z,100916.66
2023-04-22T02:16:05.319Z,100912.66
2023-04-22T02:18:31.874Z,100904.16
2023-04-22T02:20:58.427Z,100904.16
2023-04-22T02:23:25.577Z,100909.34
2023-04-22T02:25:52.697Z,100911.03
2023-04-22T02:28:19.285Z,100912.69
2023-04-22T02:30:46.383Z,100911.16
2023-04-22T02:33:13.517Z,100904.41
2023-04-22T02:35:39.964Z,100901.88
2023-04-22T02:38:06.481Z,100896.81
2023-04-22T02:40:32.961Z,100895.13
2023-04-22T02:42:59.394Z,100895.13
2023-04-22T02:45:25.830Z,100897.00
2023-04-22T02:47:52.300Z,100896.88
2023-04-22T02:50:18.811Z,100883.88
2023-04-22T02:52:45.290Z,100889.88
2023-04-22T02:55:11.715Z,100892.59
2023-04-22T02:57:38.244Z,100886.69
2023-04-22T03:00:05.427Z,100887.53
2023-04-22T03:02:32.046Z,100888.28
2023-04-22T03:04:58.861Z,100890.00
2023-04-22T03:07:25.304Z,100876.22
2023-04-22T03:09:51.753Z,100884.16
2023-04-22T03:12:18.155Z,100874.81
2023-04-22T03:14:44.536Z,100874.88
2023-04-22T03:17:11.176Z,100875.03
2023-04-22T03:19:37.804Z,100867.41
2023-04-22T03:22:04.263Z,100876.25
2023-04-22T03:24:30.831Z,100869.47
2023-04-22T03:26:57.308Z,100866.09
2023-04-22T03:29:23.751Z,100871.16
2023-04-22T03:31:50.365Z,100872.75
2023-04-22T03:34:17.378Z,100864.94
2023-04-22T03:36:43.803Z,100864.09
2023-04-22T03:39:10.258Z,100863.19
2023-04-22T03:41:36.663Z,100861.50
2023-04-22T03:44:03.063Z,100853.81
2023-04-22T03:46:30.148Z,100851.06
2023-04-22T03:48:56.765Z,100858.88
2023-04-22T03:51:23.241Z,100852.66
2023-04-22T03:53:49.670Z,100850.28
2023-04-22T03:56:16.117Z,100849.75
2023-04-22T03:58:42.533Z,100837.75
2023-04-22T04:01:08.975Z,100847.59
2023-04-22T04:03:35.665Z,100842.50
2023-04-22T04:06:02.386Z,100838.97
2023-04-22T04:08:28.959Z,100840.66
2023-04-22T04:10:55.405Z,100833.00
2023-04-22T04:13:22.622Z,100831.97
2023-04-22T04:15:49.177Z,100823.91
2023-04-22T04:18:15.631Z,100826.28
2023-04-22T04:20:42.141Z,100828.88
2023-04-22T04:23:08.635Z,100823.81
2023-04-22T04:25:38.982Z,100815.59
2023-04-22T04:28:11.217Z,100822.63
2023-04-22T04:30:38.508Z,100818.59
2023-04-22T04:33:07.161Z,100822.09
2023-04-22T04:35:35.849Z,100817.13
2023-04-22T04:38:02.375Z,100811.84
2023-04-22T04:40:29.342Z,100816.91
2023-04-22T04:42:57.468Z,100821.19
2023-04-22T04:45:24.644Z,100824.66
2023-04-22T04:47:52.815Z,100825.34
2023-04-22T04:50:22.589Z,100814.03
2023-04-22T04:52:49.486Z,100813.06
2023-04-22T04:55:16.731Z,100802.59
2023-04-22T04:57:44.703Z,100804.94
2023-04-22T05:00:11.958Z,100806.31
2023-04-22T05:02:38.697Z,100801.84
2023-04-22T05:05:06.648Z,100801.56
2023-04-22T05:07:33.322Z,100797.06
2023-04-22T05:10:00.756Z,100805.50
2023-04-22T05:12:27.190Z,100804.38
2023-04-22T05:14:53.615Z,100802.41
2023-04-22T05:17:20.746Z,100810.06
2023-04-22T05:19:47.203Z,100809.91
2023-04-22T05:22:13.699Z,100817.44
2023-04-22T05:24:40.183Z,100808.72
2023-04-22T05:27:08.038Z,100820.66
2023-04-22T05:29:34.915Z,100816.31
2023-04-22T05:32:01.534Z,100818.06
2023-04-22T05:34:28.049Z,100817.16
2023-04-22T05:36:54.829Z,100816.88
2023-04-22T05:39:21.344Z,100819.16
2023-04-22T05:41:47.911Z,100809.56
2023-04-22T05:44:14.443Z,100816.56
2023-04-22T05:46:41.065Z,100827.06
2023-04-22T05:49:07.533Z,100821.03
2023-04-22T05:51:34.024Z,100828.69
2023-04-22T05:54:00.673Z,100814.63
2023-04-22T05:56:27.203Z,100814.47
2023-04-22T05:58:53.804Z,100808.16
2023-04-22T06:01:20.295Z,100807.91
2023-04-22T06:03:47.042Z,100813.72
2023-04-22T06:06:13.982Z,100819.66
2023-04-22T06:08:40.607Z,100813.16
2023-04-22T06:11:07.087Z,100808.50
2023-04-22T06:13:33.551Z,100815.06
2023-04-22T06:16:01.237Z,100812.81
2023-04-22T06:18:28.461Z,100799.47
2023-04-22T06:20:55.975Z,100799.78
2023-04-22T06:23:22.892Z,100807.09
2023-04-22T06:25:49.987Z,100804.88
2023-04-22T06:28:16.432Z,100800.88
2023-04-22T06:30:43.051Z,100791.66
2023-04-22T06:33:09.629Z,100794.63
2023-04-22T06:35:36.966Z,100782.66
2023-04-22T06:38:03.479Z,100791.50
2023-04-22T06:40:29.900Z,100787.25
2023-04-22T06:42:56.481Z,100775.66
2023-04-22T06:45:22.866Z,100775.47
2023-04-22T06:47:49.451Z,100768.53
2023-04-22T06:50:15.934Z,100766.25
2023-04-22T06:52:43.313Z,100760.59
2023-04-22T06:55:10.916Z,100760.16
2023-04-22T06:57:37.536Z,100760.53
2023-04-22T07:00:08.466Z,100754.31
2023-04-22T07:02:35.549Z,100756.38
2023-04-22T07:05:02.422Z,100748.63
2023-04-22T07:07:29.152Z,100748.94
2023-04-22T07:09:55.749Z,100747.56
2023-04-22T07:12:22.284Z,100746.44
2023-04-22T07:14:49.466Z,100747.66
2023-04-22T07:17:19.310Z,100747.06
2023-04-22T07:19:45.973Z,100756.97
2023-04-22T07:22:12.622Z,100754.44
2023-04-22T07:24:39.845Z,100751.91
2023-04-22T07:27:06.957Z,100752.25
2023-04-22T07:29:33.625Z,100745.63
2023-04-22T07:32:00.365Z,100746.75
2023-04-22T07:34:27.124Z,100745.91
2023-04-22T07:36:54.513Z,100744.88
2023-04-22T07:39:22.699Z,100732.81
2023-04-22T07:41:49.462Z,100733.03
2023-04-22T07:44:18.434Z,100731.03
2023-04-22T07:46:45.021Z,100748.53
2023-04-22T07:49:14.023Z,100749.91
2023-04-22T07:51:41.100Z,100750.53
2023-04-22T07:54:07.840Z,100755.56
2023-04-22T07:56:34.953Z,100743.72
2023-04-22T07:59:01.632Z,100753.31
2023-04-22T08:01:28.092Z,100755.31
2023-04-22T08:03:54.846Z,100761.38
2023-04-22T08:06:21.501Z,100753.91
2023-04-22T08:08:48.051Z,100758.97
2023-04-22T08:11:14.579Z,100757.75
2023-04-22T08:13:41.248Z,100749.66
2023-04-22T08:16:07.993Z,100743.16
2023-04-22T08:18:35.302Z,100731.91
2023-04-22T08:21:02.221Z,100720.91
2023-04-22T08:23:28.670Z,100715.34
2023-04-22T08:25:55.342Z,100719.53
2023-04-22T08:28:21.951Z,100720.38
2023-04-22T08:30:48.405Z,100709.84
2023-04-22T08:33:15.552Z,100697.06
2023-04-22T08:35:42.075Z,100688.38
2023-04-22T08:38:08.585Z,100686.13
2023-04-22T08:40:36.008Z,100694.44
2023-04-22T08:43:05.339Z,100689.88
2023-04-22T08:45:32.943Z,100691.00
2023-04-22T08:48:00.824Z,100686.22
2023-04-22T08:50:29.974Z,100689.47
2023-04-22T08:52:56.485Z,100680.97
2023-04-22T08:55:22.848Z,100679.38
2023-04-22T08:57:50.659Z,100686.53
2023-04-22T09:00:19.077Z,100687.47
2023-04-22T09:02:47.067Z,100681.75
2023-04-22T09:05:17.440Z,100682.94
2023-04-22T09:07:44.779Z,100682.19
2023-04-22T09:10:11.960Z,100683.13
2023-04-22T09:12:40.592Z,100679.09
2023-04-22T09:15:08.410Z,100667.19
2023-04-22T09:17:38.275Z,100661.13
2023-04-22T09:20:07.047Z,100658.72
2023-04-22T09:22:43.215Z,100658.63
2023-04-22T09:25:19.518Z,100645.66
2023-04-22T09:27:52.403Z,100653.47
2023-04-22T09:30:30.496Z,100646.75
2023-04-22T09:32:59.529Z,100641.78
2023-04-22T09:35:37.487Z,100632.59
2023-04-22T09:38:08.023Z,100635.78
2023-04-22T09:40:35.777Z,100625.78
2023-04-22T09:43:04.917Z,100621.88
2023-04-22T09:45:40.476Z,100615.56
2023-04-22T09:48:12.095Z,100613.50
2023-04-22T09:50:43.078Z,100610.03
2023-04-22T09:53:12.329Z,100614.50
2023-04-22T09:55:41.540Z,100618.78
2023-04-22T09:58:11.964Z,100607.81
2023-04-22T10:00:47.683Z,100602.00
2023-04-22T10:03:15.562Z,100605.47
2023-04-22T10:05:44.885Z,100607.13
2023-04-22T10:08:12.474Z,100600.47
2023-04-22T10:10:39.929Z,100596.69
2023-04-22T10:13:07.972Z,100598.75
2023-04-22T10:15:44.246Z,100590.66
2023-04-22T10:18:13.917Z,100591.25
2023-04-22T10:20:42.972Z,100597.94
2023-04-22T10:23:19.875Z,100599.56
2023-04-22T10:25:51.935Z,100597.34
2023-04-22T10:28:23.482Z,100596.84
2023-04-22T10:30:50.562Z,100597.38
2023-04-22T10:33:31.493Z,100608.38
2023-04-22T10:36:10.929Z,100606.84
2023-04-22T10:38:39.304Z,100612.69
2023-04-22T10:41:05.990Z,100600.19
2023-04-22T10:43:48.562Z,100601.69
2023-04-22T10:46:34.721Z,100609.34
2023-04-22T10:49:08.139Z,100612.69
2023-04-22T10:51:42.698Z,100618.50
2023-04-22T10:54:30.572Z,100611.78
2023-04-22T10:57:07.757Z,100612.84
2023-04-22T10:59:42.003Z,100621.75
2023-04-22T11:02:09.586Z,100613.13
2023-04-22T11:04:38.696Z,100616.06
2023-04-22T11:07:27.244Z,100620.28
2023-04-22T11:10:29.944Z,100623.13
2023-04-22T11:12:57.305Z,100620.53
2023-04-22T11:15:24.411Z,100623.34
2023-04-22T11:17:52.788Z,100624.47
2023-04-22T11:20:19.930Z,100621.81
2023-04-22T11:22:49.056Z,100617.66
2023-04-22T11:25:16.023Z,100613.47
2023-04-22T11:27:45.829Z,100606.25
2023-04-22T11:30:15.694Z,100605.75
2023-04-22T11:32:44.465Z,100609.84
2023-04-22T11:35:21.601Z,100618.31
2023-04-22T11:37:51.525Z,100618.66
2023-04-22T11:42:50.073Z,100627.09
2023-04-22T11:45:17.231Z,100621.88
2023-04-22T11:47:46.091Z,100618.78
2023-04-22T11:50:14.036Z,100619.34
2023-04-22T11:53:01.553Z,100635.13
2023-04-22T11:55:34.016Z,100648.09
2023-04-22T11:58:09.677Z,100650.38
2023-04-22T12:00:40.684Z,100624.22
2023-04-22T12:03:16.125Z,100646.31
2023-04-22T12:05:45.206Z,100647.59
2023-04-22T12:08:18.885Z,100639.03
2023-04-22T12:10:57.125Z,100640.22
2023-04-22T12:13:30.295Z,100637.72
2023-04-22T12:16:01.405Z,100636.56
2023-04-22T12:18:36.915Z,100630.81
2023-04-22T12:21:14.703Z,100635.72
2023-04-22T12:23:49.399Z,100644.91
2023-04-22T12:26:24.546Z,100649.13
2023-04-22T12:28:53.478Z,100648.63
2023-04-22T12:31:21.945Z,100640.09
2023-04-22T12:33:49.281Z,100649.53
2023-04-22T12:36:16.053Z,100646.16
2023-04-22T12:38:42.522Z,100655.97
2023-04-22T12:41:09.462Z,100649.41
2023-04-22T12:43:36.972Z,100649.59
2023-04-22T12:46:04.533Z,100651.63
2023-04-22T12:48:32.397Z,100660.34
2023-04-22T12:50:59.567Z,100658.13
2023-04-22T12:53:29.518Z,100662.31
2023-04-22T12:55:56.675Z,100649.06
2023-04-22T12:58:24.336Z,100647.16
2023-04-22T13:00:50.950Z,100644.16
2023-04-22T13:03:17.662Z,100654.66
2023-04-22T13:05:45.355Z,100652.03
2023-04-22T13:08:12.197Z,100652.66
2023-04-22T13:10:38.689Z,100648.38
2023-04-22T13:13:17.947Z,100635.94
2023-04-22T13:15:47.613Z,100638.34
2023-04-22T13:18:15.970Z,100636.28
2023-04-22T13:20:42.696Z,100638.69
2023-04-22T13:23:09.772Z,100640.97
2023-04-22T13:25:36.598Z,100659.53
2023-04-22T13:28:03.132Z,100657.00
2023-04-22T13:30:29.600Z,100655.19
2023-04-22T13:32:56.119Z,100658.31
2023-04-22T13:35:22.804Z,100658.81
2023-04-22T13:37:49.394Z,100666.22
2023-04-22T13:40:16.169Z,100669.34
2023-04-22T13:42:44.393Z,100664.69
2023-04-22T13:45:11.261Z,100661.06
2023-04-22T13:47:37.831Z,100665.72
2023-04-22T13:50:05.959Z,100665.97
2023-04-22T13:52:32.480Z,100667.16
2023-04-22T13:54:58.952Z,100661.69
2023-04-22T13:57:25.894Z,100674.69
2023-04-22T13:59:52.347Z,100673.88
2023-04-22T14:02:18.785Z,100678.78
2023-04-22T14:04:45.292Z,100671.63
2023-04-22T14:07:12.619Z,100666.00
2023-04-22T14:09:39.361Z,100669.72
2023-04-22T14:12:07.806Z,100662.53
2023-04-22T14:14:34.758Z,100659.66
2023-04-22T14:17:01.575Z,100656.78
2023-04-22T14:19:32.412Z,100658.47
2023-04-22T14:21:58.985Z,100662.25
2023-04-22T14:24:25.698Z,100666.69
2023-04-22T14:26:52.915Z,100659.78
2023-04-22T14:29:19.973Z,100668.00
2023-04-22T14:31:46.530Z,100659.28
2023-04-22T14:34:13.193Z,100659.53
2023-04-22T14:36:39.896Z,100663.84
2023-04-22T14:39:06.344Z,100657.16
2023-04-22T14:41:32.978Z,100654.84
2023-04-22T14:43:59.610Z,100656.03
2023-04-22T14:46:26.383Z,100661.88
2023-04-22T14:48:52.902Z,100665.28
2023-04-22T14:51:19.414Z,100660.50
2023-04-22T14:53:45.883Z,100653.56
2023-04-22T14:56:12.327Z,100657.38
2023-04-22T14:58:38.936Z,100658.25
2023-04-22T15:01:07.350Z,100657.38
2023-04-22T15:03:35.835Z,100657.38
2023-04-22T15:06:02.877Z,100664.69
2023-04-22T15:08:29.486Z,100666.13
2023-04-22T15:10:59.469Z,100662.81
2023-04-22T15:13:26.133Z,100665.44
2023-04-22T15:15:52.698Z,100665.09
2023-04-22T15:18:19.313Z,100664.13
2023-04-22T15:20:45.731Z,100669.63
2023-04-22T15:23:12.838Z,100664.00
2023-04-22T15:25:39.452Z,100669.41
2023-04-22T15:28:05.872Z,100670.34
2023-04-22T15:30:32.396Z,100665.69
2023-04-22T15:32:58.851Z,100665.69
2023-04-22T15:35:29.055Z,100671.91
2023-04-22T15:37:58.146Z,100674.16
2023-04-22T15:40:24.743Z,100675.34
2023-04-22T15:42:51.263Z,100677.47
2023-04-22T15:45:17.926Z,100678.25
2023-04-22T15:47:44.469Z,100679.47
2023-04-22T15:50:11.124Z,100690.81
2023-04-22T15:52:38.490Z,100682.91
2023-04-22T15:55:06.359Z,100684.00
2023-04-22T15:57:35.158Z,100675.63
2023-04-22T16:00:11.082Z,100674.78
2023-04-22T16:02:39.214Z,100683.13
2023-04-22T16:05:06.215Z,100686.66
2023-04-22T16:07:32.775Z,100688.59
2023-04-22T16:09:59.227Z,100691.06
2023-04-22T16:12:25.658Z,100693.69
2023-04-22T16:14:52.059Z,100691.41
2023-04-22T16:17:18.697Z,100693.53
2023-04-22T16:19:45.546Z,100698.84
2023-04-22T16:22:12.261Z,100701.13
2023-04-22T16:24:38.706Z,100703.13
2023-04-22T16:27:05.816Z,100712.94
2023-04-22T16:29:32.195Z,100706.78
2023-04-22T16:31:58.733Z,100718.50
2023-04-22T16:34:25.239Z,100723.16
2023-04-22T16:36:51.776Z,100719.78
2023-04-22T16:39:19.079Z,100729.03
2023-04-22T16:41:45.743Z,100732.69
2023-04-22T16:44:12.142Z,100738.47
2023-04-22T16:46:38.771Z,100741.41
2023-04-22T16:49:06.890Z,100745.81
2023-04-22T16:51:34.186Z,100745.25
2023-04-22T16:54:00.683Z,100746.19
2023-04-22T16:56:27.124Z,100737.28
2023-04-22T16:58:53.509Z,100732.38
2023-04-22T17:01:20.354Z,100738.03
2023-04-22T17:03:47.113Z,100727.34
2023-04-22T17:06:13.731Z,100732.50
2023-04-22T17:08:40.168Z,100726.94
2023-04-22T17:11:07.105Z,100731.97
2023-04-22T17:13:33.569Z,100727.91
2023-04-22T17:16:00.101Z,100723.06
2023-04-22T17:18:26.706Z,100720.75
2023-04-22T17:20:53.251Z,100720.97
2023-04-22T17:23:19.940Z,100725.69
2023-04-22T17:25:46.964Z,100726.81
2023-04-22T17:28:13.874Z,100730.53
2023-04-22T17:30:40.730Z,100730.41
2023-04-22T17:33:07.261Z,100731.56
2023-04-22T17:35:33.704Z,100716.53
2023-04-22T17:38:00.140Z,100733.84
2023-04-22T17:40:26.615Z,100739.00
2023-04-22T17:42:53.117Z,100732.81
2023-04-22T17:45:19.604Z,100728.94
2023-04-22T17:47:48.412Z,100731.97
2023-04-22T17:50:14.960Z,100740.03
2023-04-22T17:52:41.411Z,100743.28
2023-04-22T17:55:08.492Z,100748.09
2023-04-22T17:57:34.957Z,100743.78
2023-04-22T18:00:01.550Z,100749.34
2023-04-22T18:02:28.208Z,100749.56
2023-04-22T18:04:54.802Z,100751.63
2023-04-22T18:07:21.826Z,100746.38
2023-04-22T18:09:49.569Z,100753.13
2023-04-22T18:12:16.529Z,100758.13
2023-04-22T18:14:43.189Z,100759.81
2023-04-22T18:17:09.671Z,100766.94
2023-04-22T18:19:36.076Z,100774.38
2023-04-22T18:22:02.642Z,100774.41
2023-04-22T18:24:29.069Z,100774.41
2023-04-22T18:26:55.526Z,100779.63
2023-04-22T18:29:21.911Z,100792.03
2023-04-22T18:31:48.456Z,100795.25
2023-04-22T18:34:15.929Z,100802.03
2023-04-22T18:36:42.647Z,100800.41
2023-04-22T18:39:09.588Z,100798.50
2023-04-22T18:41:38.491Z,100807.44
2023-04-22T18:44:05.036Z,100800.19
2023-04-22T18:46:31.548Z,100811.84
2023-04-22T18:48:57.997Z,100808.88
2023-04-22T18:51:24.531Z,100819.72
2023-04-22T18:53:51.003Z,100822.59
2023-04-22T18:56:17.617Z,100829.91
2023-04-22T18:58:45.059Z,100833.81
2023-04-22T19:01:11.712Z,100834.25
2023-04-22T19:03:39.597Z,100844.16
2023-04-22T19:06:06.859Z,100838.19
2023-04-22T19:08:34.255Z,100842.94
2023-04-22T19:11:00.913Z,100842.34
2023-04-22T19:13:29.965Z,100847.84
2023-04-22T19:15:57.510Z,100853.84
2023-04-22T19:18:24.106Z,100857.00
2023-04-22T19:20:50.647Z,100854.31
2023-04-22T19:23:17.401Z,100856.81
2023-04-22T19:25:43.996Z,100858.31
2023-04-22T19:28:10.516Z,100857.41
2023-04-22T19:30:37.028Z,100865.50
2023-04-22T19:33:03.582Z,100859.78
2023-04-22T19:35:30.083Z,100860.16
2023-04-22T19:37:56.489Z,100867.44
2023-04-22T19:40:22.993Z,100867.03
2023-04-22T19:42:49.564Z,100863.94
2023-04-22T19:45:16.159Z,100870.00
2023-04-22T19:47:42.916Z,100865.78
2023-04-22T19:50:10.038Z,100863.44
2023-04-22T19:52:36.571Z,100861.09
2023-04-22T19:55:10.015Z,100853.69
2023-04-22T19:57:37.545Z,100866.16
2023-04-22T20:00:07.552Z,100864.81
2023-04-22T20:02:38.524Z,100873.00
2023-04-22T20:05:05.773Z,100877.66
2023-04-22T20:07:33.249Z,100870.81
2023-04-22T20:10:02.388Z,100877.66
2023-04-22T20:12:29.405Z,100879.47
2023-04-22T20:14:57.975Z,100878.06
2023-04-22T20:17:25.391Z,100872.41
2023-04-22T20:19:52.826Z,100877.13
2023-04-22T20:22:23.592Z,100869.78
2023-04-22T20:25:02.114Z,100874.59
2023-04-22T20:27:32.627Z,100869.69
2023-04-22T20:30:00.889Z,100865.47
2023-04-22T20:32:28.735Z,100863.03
2023-04-22T20:34:56.186Z,100874.22
2023-04-22T20:37:24.068Z,100870.69
2023-04-22T20:39:51.619Z,100860.44
2023-04-22T20:42:19.770Z,100862.75
2023-04-22T20:44:46.454Z,100859.78
2023-04-22T20:47:13.753Z,100855.00
2023-04-22T20:49:42.025Z,100851.88
2023-04-22T20:52:09.620Z,100860.00
2023-04-22T20:54:36.881Z,100850.81
2023-04-22T20:57:05.774Z,100856.13
2023-04-22T20:59:33.317Z,100855.25
2023-04-22T21:02:00.782Z,100849.28
2023-04-22T21:04:28.078Z,100846.69
2023-04-22T21:06:55.634Z,100844.09
2023-04-22T21:09:24.896Z,100863.41
2023-04-22T21:11:52.880Z,100866.16
2023-04-22T21:14:22.224Z,100852.47
2023-04-22T21:17:10.310Z,100858.56
2023-04-22T21:20:14.355Z,100856.06
2023-04-22T21:22:43.320Z,100851.69
2023-04-22T21:25:11.152Z,100847.63
2023-04-22T21:27:38.175Z,100845.25
2023-04-22T21:30:06.733Z,100853.16
2023-04-22T21:32:33.203Z,100854.22
2023-04-22T21:35:00.672Z,100850.09
2023-04-22T21:37:28.174Z,100853.00
2023-04-22T21:39:56.015Z,100850.69
2023-04-22T21:42:22.626Z,100844.59
2023-04-22T21:44:50.120Z,100848.09
2023-04-22T21:47:16.868Z,100847.25
2023-04-22T21:49:43.508Z,100855.06
2023-04-22T21:52:10.104Z,100856.75
2023-04-22T21:54:37.645Z,100854.22
2023-04-22T21:57:05.029Z,100870.81
2023-04-22T21:59:33.967Z,100868.91
2023-04-22T22:02:00.775Z,100867.09
2023-04-22T22:04:27.394Z,100872.28
2023-04-22T22:06:54.201Z,100869.00
2023-04-22T22:09:21.362Z,100862.97
2023-04-22T22:11:47.900Z,100871.50
2023-04-22T22:14:14.507Z,100866.31
2023-04-22T22:16:41.946Z,100873.22
2023-04-22T22:19:11.242Z,100859.44
2023-04-22T22:21:37.896Z,100868.31
2023-04-22T22:24:04.518Z,100871.84
2023-04-22T22:26:31.350Z,100869.41
2023-04-22T22:28:57.842Z,100877.19
2023-04-22T22:31:24.493Z,100870.13
2023-04-22T22:33:51.062Z,100875.06
2023-04-22T22:36:21.174Z,100871.59
2023-04-22T22:38:47.586Z,100865.56
2023-04-22T22:41:23.758Z,100874.22
2023-04-22T22:43:53.294Z,100877.66
2023-04-22T22:46:19.847Z,100881.94
2023-04-22T22:48:52.702Z,100887.91
2023-04-22T22:51:21.140Z,100889.75
2023-04-22T22:53:55.810Z,100888.84
2023-04-22T22:56:22.420Z,100887.91
2023-04-22T22:58:48.830Z,100891.50
2023-04-22T23:01:17.218Z,100888.84
2023-04-22T23:03:44.877Z,100892.16
2023-04-22T23:06:14.502Z,100889.44
2023-04-22T23:08:41.005Z,100882.47
2023-04-22T23:11:07.524Z,100888.69
2023-04-22T23:13:35.643Z,100895.88
2023-04-22T23:16:02.132Z,100891.66
2023-04-22T23:18:29.749Z,100890.97
2023-04-22T23:21:01.108Z,100887.75
2023-04-22T23:23:29.817Z,100888.66
2023-04-22T23:25:57.665Z,100882.69
2023-04-22T23:28:25.904Z,100880.25
2023-04-22T23:30:55.398Z,100890.72
2023-04-22T23:33:25.666Z,100881.16
2023-04-22T23:35:56.992Z,100874.09
2023-04-22T23:38:25.075Z,100875.03
2023-04-22T23:40:51.656Z,100868.31
2023-04-22T23:43:19.062Z,100860.63
2023-04-22T23:45:45.524Z,100865.75
2023-04-22T23:48:12.053Z,100857.13
2023-04-22T23:50:38.589Z,100854.50
2023-04-22T23:53:10.417Z,100849.44
2023-04-22T23:55:37.173Z,100845.16
2023-04-22T23:58:04.045Z,100839.19
